sensor_id;sensor_type;location;lat;lon;timestamp;P1;durP1;ratioP1;P2;durP2;ratioP2
20531;SDS011;10424;52.102;8.084;2022-07-03T00:00:24;3.42;;;2.10;;
20531;SDS011;10424;52.102;8.084;2022-07-03T00:02:51;2.00;;;1.80;;
20531;SDS011;10424;52.102;8.084;2022-07-03T00:05:19;4.05;;;2.05;;
20531;SDS011;10424;52.102;8.084;2022-07-03T00:07:46;2.65;;;1.95;;
20531;SDS011;10424;52.102;8.084;2022-07-03T00:10:14;2.75;;;1.98;;
20531;SDS011;10424;52.102;8.084;2022-07-03T00:12:41;2.38;;;2.00;;
20531;SDS011;10424;52.102;8.084;2022-07-03T00:15:09;2.97;;;2.20;;
20531;SDS011;10424;52.102;8.084;2022-07-03T00:17:38;2.92;;;2.17;;
20531;SDS011;10424;52.102;8.084;2022-07-03T00:20:05;2.85;;;2.28;;
20531;SDS011;10424;52.102;8.084;2022-07-03T00:22:33;2.75;;;2.38;;
20531;SDS011;10424;52.102;8.084;2022-07-03T00:25:04;5.70;;;2.13;;
20531;SDS011;10424;52.102;8.084;2022-07-03T00:27:32;2.80;;;2.00;;
20531;SDS011;10424;52.102;8.084;2022-07-03T00:30:00;3.45;;;2.25;;
20531;SDS011;10424;52.102;8.084;2022-07-03T00:32:28;2.90;;;2.40;;
20531;SDS011;10424;52.102;8.084;2022-07-03T00:34:57;2.97;;;2.30;;
20531;SDS011;10424;52.102;8.084;2022-07-03T00:37:25;2.50;;;2.30;;
20531;SDS011;10424;52.102;8.084;2022-07-03T00:39:52;4.88;;;2.60;;
20531;SDS011;10424;52.102;8.084;2022-07-03T00:42:19;4.72;;;2.50;;
20531;SDS011;10424;52.102;8.084;2022-07-03T00:44:47;4.75;;;2.80;;
20531;SDS011;10424;52.102;8.084;2022-07-03T00:47:15;4.78;;;2.92;;
20531;SDS011;10424;52.102;8.084;2022-07-03T00:49:44;4.40;;;3.22;;
20531;SDS011;10424;52.102;8.084;2022-07-03T00:52:13;6.03;;;3.03;;
20531;SDS011;10424;52.102;8.084;2022-07-03T00:54:42;4.90;;;3.10;;
20531;SDS011;10424;52.102;8.084;2022-07-03T00:57:13;6.15;;;3.25;;
20531;SDS011;10424;52.102;8.084;2022-07-03T00:59:40;8.27;;;3.20;;
20531;SDS011;10424;52.102;8.084;2022-07-03T01:02:08;4.55;;;3.20;;
20531;SDS011;10424;52.102;8.084;2022-07-03T01:04:40;3.97;;;3.33;;
20531;SDS011;10424;52.102;8.084;2022-07-03T01:07:16;4.22;;;3.05;;
20531;SDS011;10424;52.102;8.084;2022-07-03T01:09:48;3.55;;;3.05;;
20531;SDS011;10424;52.102;8.084;2022-07-03T01:12:22;4.80;;;3.33;;
20531;SDS011;10424;52.102;8.084;2022-07-03T01:14:52;3.78;;;3.03;;
20531;SDS011;10424;52.102;8.084;2022-07-03T01:17:25;4.53;;;3.28;;
20531;SDS011;10424;52.102;8.084;2022-07-03T01:19:55;4.38;;;3.28;;
20531;SDS011;10424;52.102;8.084;2022-07-03T01:22:30;4.93;;;3.00;;
20531;SDS011;10424;52.102;8.084;2022-07-03T01:25:11;3.75;;;3.00;;
20531;SDS011;10424;52.102;8.084;2022-07-03T01:27:44;5.05;;;3.00;;
20531;SDS011;10424;52.102;8.084;2022-07-03T01:30:14;4.22;;;3.10;;
20531;SDS011;10424;52.102;8.084;2022-07-03T01:32:46;4.22;;;3.13;;
20531;SDS011;10424;52.102;8.084;2022-07-03T01:35:21;3.90;;;2.90;;
20531;SDS011;10424;52.102;8.084;2022-07-03T01:37:48;3.60;;;2.70;;
20531;SDS011;10424;52.102;8.084;2022-07-03T01:40:17;4.10;;;2.78;;
20531;SDS011;10424;52.102;8.084;2022-07-03T01:42:46;3.90;;;3.00;;
20531;SDS011;10424;52.102;8.084;2022-07-03T01:45:15;5.00;;;3.60;;
20531;SDS011;10424;52.102;8.084;2022-07-03T01:47:42;7.57;;;4.20;;
20531;SDS011;10424;52.102;8.084;2022-07-03T01:50:12;4.45;;;3.90;;
20531;SDS011;10424;52.102;8.084;2022-07-03T01:52:40;5.63;;;3.67;;
20531;SDS011;10424;52.102;8.084;2022-07-03T01:55:08;4.70;;;3.55;;
20531;SDS011;10424;52.102;8.084;2022-07-03T01:57:37;5.38;;;3.30;;
20531;SDS011;10424;52.102;8.084;2022-07-03T02:00:10;3.97;;;3.03;;
20531;SDS011;10424;52.102;8.084;2022-07-03T02:02:39;3.97;;;2.80;;
20531;SDS011;10424;52.102;8.084;2022-07-03T02:05:08;3.65;;;2.75;;
20531;SDS011;10424;52.102;8.084;2022-07-03T02:07:38;8.13;;;2.88;;
20531;SDS011;10424;52.102;8.084;2022-07-03T02:10:07;5.07;;;2.90;;
20531;SDS011;10424;52.102;8.084;2022-07-03T02:12:37;3.33;;;2.70;;
20531;SDS011;10424;52.102;8.084;2022-07-03T02:15:06;4.38;;;2.80;;
20531;SDS011;10424;52.102;8.084;2022-07-03T02:17:37;4.57;;;3.10;;
20531;SDS011;10424;52.102;8.084;2022-07-03T02:20:06;3.97;;;2.72;;
20531;SDS011;10424;52.102;8.084;2022-07-03T02:22:35;2.75;;;2.50;;
20531;SDS011;10424;52.102;8.084;2022-07-03T02:25:04;4.57;;;2.55;;
20531;SDS011;10424;52.102;8.084;2022-07-03T02:27:32;2.83;;;2.50;;
20531;SDS011;10424;52.102;8.084;2022-07-03T02:30:05;2.65;;;2.40;;
20531;SDS011;10424;52.102;8.084;2022-07-03T02:32:34;2.80;;;2.47;;
20531;SDS011;10424;52.102;8.084;2022-07-03T02:35:04;4.55;;;2.60;;
20531;SDS011;10424;52.102;8.084;2022-07-03T02:37:33;3.03;;;2.60;;
20531;SDS011;10424;52.102;8.084;2022-07-03T02:40:03;4.25;;;2.60;;
20531;SDS011;10424;52.102;8.084;2022-07-03T02:42:32;3.17;;;2.63;;
20531;SDS011;10424;52.102;8.084;2022-07-03T02:45:03;3.45;;;2.80;;
20531;SDS011;10424;52.102;8.084;2022-07-03T02:47:34;6.57;;;3.00;;
20531;SDS011;10424;52.102;8.084;2022-07-03T02:50:05;2.90;;;2.60;;
20531;SDS011;10424;52.102;8.084;2022-07-03T02:52:42;5.65;;;3.05;;
20531;SDS011;10424;52.102;8.084;2022-07-03T02:55:17;7.32;;;2.75;;
20531;SDS011;10424;52.102;8.084;2022-07-03T02:57:51;3.97;;;2.67;;
20531;SDS011;10424;52.102;8.084;2022-07-03T03:00:22;6.93;;;3.10;;
20531;SDS011;10424;52.102;8.084;2022-07-03T03:02:54;9.18;;;3.00;;
20531;SDS011;10424;52.102;8.084;2022-07-03T03:05:27;3.50;;;2.88;;
20531;SDS011;10424;52.102;8.084;2022-07-03T03:10:37;8.60;;;3.90;;
20531;SDS011;10424;52.102;8.084;2022-07-03T03:13:07;4.15;;;3.30;;
20531;SDS011;10424;52.102;8.084;2022-07-03T03:15:35;7.43;;;3.05;;
20531;SDS011;10424;52.102;8.084;2022-07-03T03:18:03;4.25;;;3.00;;
20531;SDS011;10424;52.102;8.084;2022-07-03T03:20:34;4.97;;;2.63;;
20531;SDS011;10424;52.102;8.084;2022-07-03T03:23:09;8.43;;;3.03;;
20531;SDS011;10424;52.102;8.084;2022-07-03T03:25:36;4.80;;;3.05;;
20531;SDS011;10424;52.102;8.084;2022-07-03T03:28:04;7.25;;;3.38;;
20531;SDS011;10424;52.102;8.084;2022-07-03T03:30:31;8.00;;;2.92;;
20531;SDS011;10424;52.102;8.084;2022-07-03T03:32:58;3.65;;;2.92;;
20531;SDS011;10424;52.102;8.084;2022-07-03T03:35:26;3.40;;;3.10;;
20531;SDS011;10424;52.102;8.084;2022-07-03T03:37:54;4.28;;;2.92;;
20531;SDS011;10424;52.102;8.084;2022-07-03T03:40:22;2.90;;;2.55;;
20531;SDS011;10424;52.102;8.084;2022-07-03T03:42:49;3.55;;;2.80;;
20531;SDS011;10424;52.102;8.084;2022-07-03T03:45:17;5.68;;;2.83;;
20531;SDS011;10424;52.102;8.084;2022-07-03T03:47:44;3.50;;;2.80;;
20531;SDS011;10424;52.102;8.084;2022-07-03T03:50:11;3.00;;;2.70;;
20531;SDS011;10424;52.102;8.084;2022-07-03T03:52:39;5.40;;;2.60;;
20531;SDS011;10424;52.102;8.084;2022-07-03T03:55:08;3.53;;;2.80;;
20531;SDS011;10424;52.102;8.084;2022-07-03T03:57:35;7.00;;;3.00;;
20531;SDS011;10424;52.102;8.084;2022-07-03T04:00:04;6.25;;;2.75;;
20531;SDS011;10424;52.102;8.084;2022-07-03T04:02:31;7.32;;;3.00;;
20531;SDS011;10424;52.102;8.084;2022-07-03T04:04:58;6.18;;;3.60;;
20531;SDS011;10424;52.102;8.084;2022-07-03T04:07:26;4.20;;;3.58;;
20531;SDS011;10424;52.102;8.084;2022-07-03T04:09:53;4.22;;;3.10;;
20531;SDS011;10424;52.102;8.084;2022-07-03T04:12:22;4.50;;;2.83;;
20531;SDS011;10424;52.102;8.084;2022-07-03T04:14:49;3.35;;;2.80;;
20531;SDS011;10424;52.102;8.084;2022-07-03T04:17:16;4.90;;;3.25;;
20531;SDS011;10424;52.102;8.084;2022-07-03T04:19:44;4.47;;;3.42;;
20531;SDS011;10424;52.102;8.084;2022-07-03T04:22:11;4.68;;;3.38;;
20531;SDS011;10424;52.102;8.084;2022-07-03T04:24:38;3.78;;;3.03;;
20531;SDS011;10424;52.102;8.084;2022-07-03T04:27:06;5.10;;;3.13;;
20531;SDS011;10424;52.102;8.084;2022-07-03T04:29:34;6.07;;;3.35;;
20531;SDS011;10424;52.102;8.084;2022-07-03T04:32:02;3.85;;;3.03;;
20531;SDS011;10424;52.102;8.084;2022-07-03T04:34:29;3.70;;;3.08;;
20531;SDS011;10424;52.102;8.084;2022-07-03T04:36:56;3.80;;;3.30;;
20531;SDS011;10424;52.102;8.084;2022-07-03T04:39:24;3.97;;;3.58;;
20531;SDS011;10424;52.102;8.084;2022-07-03T04:41:51;5.32;;;3.50;;
20531;SDS011;10424;52.102;8.084;2022-07-03T04:44:19;4.47;;;3.55;;
20531;SDS011;10424;52.102;8.084;2022-07-03T04:46:47;5.00;;;3.53;;
20531;SDS011;10424;52.102;8.084;2022-07-03T04:49:15;11.50;;;4.43;;
20531;SDS011;10424;52.102;8.084;2022-07-03T04:51:42;4.32;;;3.30;;
20531;SDS011;10424;52.102;8.084;2022-07-03T04:54:10;4.70;;;3.78;;
20531;SDS011;10424;52.102;8.084;2022-07-03T04:56:37;6.55;;;3.75;;
20531;SDS011;10424;52.102;8.084;2022-07-03T04:59:04;5.88;;;3.97;;
20531;SDS011;10424;52.102;8.084;2022-07-03T05:01:32;4.00;;;3.60;;
20531;SDS011;10424;52.102;8.084;2022-07-03T05:04:00;4.47;;;3.83;;
20531;SDS011;10424;52.102;8.084;2022-07-03T05:06:28;4.57;;;3.97;;
20531;SDS011;10424;52.102;8.084;2022-07-03T05:08:55;4.10;;;3.60;;
20531;SDS011;10424;52.102;8.084;2022-07-03T05:11:22;6.75;;;4.03;;
20531;SDS011;10424;52.102;8.084;2022-07-03T05:13:50;6.13;;;4.50;;
20531;SDS011;10424;52.102;8.084;2022-07-03T05:16:17;5.93;;;4.10;;
20531;SDS011;10424;52.102;8.084;2022-07-03T05:18:44;5.20;;;4.03;;
20531;SDS011;10424;52.102;8.084;2022-07-03T05:21:13;5.95;;;4.50;;
20531;SDS011;10424;52.102;8.084;2022-07-03T05:23:40;5.82;;;4.40;;
20531;SDS011;10424;52.102;8.084;2022-07-03T05:26:08;6.75;;;4.75;;
20531;SDS011;10424;52.102;8.084;2022-07-03T05:28:36;6.07;;;4.60;;
20531;SDS011;10424;52.102;8.084;2022-07-03T05:31:03;5.00;;;4.50;;
20531;SDS011;10424;52.102;8.084;2022-07-03T05:33:31;5.63;;;4.57;;
20531;SDS011;10424;52.102;8.084;2022-07-03T05:35:58;6.57;;;4.72;;
20531;SDS011;10424;52.102;8.084;2022-07-03T05:38:27;8.90;;;4.82;;
20531;SDS011;10424;52.102;8.084;2022-07-03T05:41:18;5.18;;;4.55;;
20531;SDS011;10424;52.102;8.084;2022-07-03T05:43:45;7.30;;;4.88;;
20531;SDS011;10424;52.102;8.084;2022-07-03T05:46:13;5.47;;;4.70;;
20531;SDS011;10424;52.102;8.084;2022-07-03T05:48:40;7.05;;;5.18;;
20531;SDS011;10424;52.102;8.084;2022-07-03T05:51:08;9.77;;;5.13;;
20531;SDS011;10424;52.102;8.084;2022-07-03T05:53:37;11.65;;;5.72;;
20531;SDS011;10424;52.102;8.084;2022-07-03T05:56:04;9.13;;;6.00;;
20531;SDS011;10424;52.102;8.084;2022-07-03T05:58:32;8.68;;;5.60;;
20531;SDS011;10424;52.102;8.084;2022-07-03T06:00:59;9.30;;;5.70;;
20531;SDS011;10424;52.102;8.084;2022-07-03T06:03:27;7.07;;;5.65;;
20531;SDS011;10424;52.102;8.084;2022-07-03T06:05:55;12.38;;;6.53;;
20531;SDS011;10424;52.102;8.084;2022-07-03T06:08:22;8.63;;;6.03;;
20531;SDS011;10424;52.102;8.084;2022-07-03T06:10:51;8.65;;;6.20;;
20531;SDS011;10424;52.102;8.084;2022-07-03T06:13:18;8.70;;;5.80;;
20531;SDS011;10424;52.102;8.084;2022-07-03T06:15:45;11.80;;;6.32;;
20531;SDS011;10424;52.102;8.084;2022-07-03T06:18:13;8.63;;;5.97;;
20531;SDS011;10424;52.102;8.084;2022-07-03T06:20:40;10.20;;;6.40;;
20531;SDS011;10424;52.102;8.084;2022-07-03T06:23:07;8.38;;;6.00;;
20531;SDS011;10424;52.102;8.084;2022-07-03T06:25:34;7.78;;;5.93;;
20531;SDS011;10424;52.102;8.084;2022-07-03T06:28:04;7.30;;;5.90;;
20531;SDS011;10424;52.102;8.084;2022-07-03T06:30:31;8.82;;;6.03;;
20531;SDS011;10424;52.102;8.084;2022-07-03T06:32:59;10.63;;;5.97;;
20531;SDS011;10424;52.102;8.084;2022-07-03T06:35:26;9.27;;;6.20;;
20531;SDS011;10424;52.102;8.084;2022-07-03T06:37:54;6.95;;;5.82;;
20531;SDS011;10424;52.102;8.084;2022-07-03T06:40:21;8.38;;;6.07;;
20531;SDS011;10424;52.102;8.084;2022-07-03T06:42:49;9.23;;;6.10;;
20531;SDS011;10424;52.102;8.084;2022-07-03T06:45:17;8.40;;;6.10;;
20531;SDS011;10424;52.102;8.084;2022-07-03T06:47:45;10.10;;;6.32;;
20531;SDS011;10424;52.102;8.084;2022-07-03T06:50:12;8.13;;;6.35;;
20531;SDS011;10424;52.102;8.084;2022-07-03T06:52:40;8.65;;;6.40;;
20531;SDS011;10424;52.102;8.084;2022-07-03T06:55:07;9.38;;;6.50;;
20531;SDS011;10424;52.102;8.084;2022-07-03T06:57:34;6.88;;;5.88;;
20531;SDS011;10424;52.102;8.084;2022-07-03T07:00:02;8.13;;;5.70;;
20531;SDS011;10424;52.102;8.084;2022-07-03T07:02:31;8.07;;;5.78;;
20531;SDS011;10424;52.102;8.084;2022-07-03T07:04:58;7.95;;;5.90;;
20531;SDS011;10424;52.102;8.084;2022-07-03T07:07:26;10.13;;;5.80;;
20531;SDS011;10424;52.102;8.084;2022-07-03T07:09:53;9.43;;;6.57;;
20531;SDS011;10424;52.102;8.084;2022-07-03T07:12:20;7.63;;;6.55;;
20531;SDS011;10424;52.102;8.084;2022-07-03T07:14:48;7.53;;;6.00;;
20531;SDS011;10424;52.102;8.084;2022-07-03T07:17:15;5.90;;;5.30;;
20531;SDS011;10424;52.102;8.084;2022-07-03T07:19:44;6.88;;;5.45;;
20531;SDS011;10424;52.102;8.084;2022-07-03T07:22:11;7.55;;;5.93;;
20531;SDS011;10424;52.102;8.084;2022-07-03T07:24:38;6.93;;;5.45;;
20531;SDS011;10424;52.102;8.084;2022-07-03T07:27:06;6.00;;;5.30;;
20531;SDS011;10424;52.102;8.084;2022-07-03T07:29:33;11.13;;;6.32;;
20531;SDS011;10424;52.102;8.084;2022-07-03T07:32:00;7.78;;;5.50;;
20531;SDS011;10424;52.102;8.084;2022-07-03T07:34:28;9.23;;;5.40;;
20531;SDS011;10424;52.102;8.084;2022-07-03T07:36:56;6.80;;;5.18;;
20531;SDS011;10424;52.102;8.084;2022-07-03T07:39:24;7.95;;;5.10;;
20531;SDS011;10424;52.102;8.084;2022-07-03T07:41:51;6.13;;;5.25;;
20531;SDS011;10424;52.102;8.084;2022-07-03T07:44:18;7.32;;;5.40;;
20531;SDS011;10424;52.102;8.084;2022-07-03T07:46:46;6.50;;;5.38;;
20531;SDS011;10424;52.102;8.084;2022-07-03T07:49:13;7.07;;;5.40;;
20531;SDS011;10424;52.102;8.084;2022-07-03T07:51:41;6.60;;;5.13;;
20531;SDS011;10424;52.102;8.084;2022-07-03T07:54:10;6.43;;;5.18;;
20531;SDS011;10424;52.102;8.084;2022-07-03T07:56:37;7.60;;;5.00;;
20531;SDS011;10424;52.102;8.084;2022-07-03T07:59:05;7.60;;;4.63;;
20531;SDS011;10424;52.102;8.084;2022-07-03T08:01:32;7.35;;;4.90;;
20531;SDS011;10424;52.102;8.084;2022-07-03T08:04:17;6.57;;;4.60;;
20531;SDS011;10424;52.102;8.084;2022-07-03T08:07:02;6.35;;;4.85;;
20531;SDS011;10424;52.102;8.084;2022-07-03T08:09:31;6.30;;;5.03;;
20531;SDS011;10424;52.102;8.084;2022-07-03T08:11:58;20.60;;;9.93;;
20531;SDS011;10424;52.102;8.084;2022-07-03T08:14:25;8.90;;;5.40;;
20531;SDS011;10424;52.102;8.084;2022-07-03T08:16:53;4.40;;;3.25;;
20531;SDS011;10424;52.102;8.084;2022-07-03T08:19:20;6.45;;;3.10;;
20531;SDS011;10424;52.102;8.084;2022-07-03T08:21:47;5.05;;;2.45;;
20531;SDS011;10424;52.102;8.084;2022-07-03T08:24:15;2.70;;;2.30;;
20531;SDS011;10424;52.102;8.084;2022-07-03T08:26:43;4.10;;;2.63;;
20531;SDS011;10424;52.102;8.084;2022-07-03T08:29:11;4.60;;;1.70;;
20531;SDS011;10424;52.102;8.084;2022-07-03T08:31:38;3.50;;;1.80;;
20531;SDS011;10424;52.102;8.084;2022-07-03T08:34:05;2.65;;;1.52;;
20531;SDS011;10424;52.102;8.084;2022-07-03T08:36:33;3.05;;;1.42;;
20531;SDS011;10424;52.102;8.084;2022-07-03T08:39:01;2.75;;;1.40;;
20531;SDS011;10424;52.102;8.084;2022-07-03T08:41:28;2.10;;;1.08;;
20531;SDS011;10424;52.102;8.084;2022-07-03T08:44:00;1.98;;;1.30;;
20531;SDS011;10424;52.102;8.084;2022-07-03T08:46:30;1.45;;;1.00;;
20531;SDS011;10424;52.102;8.084;2022-07-03T08:48:58;4.40;;;1.27;;
20531;SDS011;10424;52.102;8.084;2022-07-03T08:51:27;2.72;;;1.10;;
20531;SDS011;10424;52.102;8.084;2022-07-03T08:53:54;1.83;;;1.15;;
20531;SDS011;10424;52.102;8.084;2022-07-03T08:56:22;1.77;;;0.80;;
20531;SDS011;10424;52.102;8.084;2022-07-03T08:58:50;2.25;;;0.90;;
20531;SDS011;10424;52.102;8.084;2022-07-03T09:01:19;1.92;;;1.10;;
20531;SDS011;10424;52.102;8.084;2022-07-03T09:03:46;1.23;;;1.00;;
20531;SDS011;10424;52.102;8.084;2022-07-03T09:06:14;1.90;;;1.08;;
20531;SDS011;10424;52.102;8.084;2022-07-03T09:08:41;2.75;;;1.20;;
20531;SDS011;10424;52.102;8.084;2022-07-03T09:11:09;0.98;;;0.80;;
20531;SDS011;10424;52.102;8.084;2022-07-03T09:13:37;1.98;;;0.80;;
20531;SDS011;10424;52.102;8.084;2022-07-03T09:16:04;2.83;;;1.00;;
20531;SDS011;10424;52.102;8.084;2022-07-03T09:18:40;4.20;;;1.00;;
20531;SDS011;10424;52.102;8.084;2022-07-03T09:21:07;1.05;;;0.70;;
20531;SDS011;10424;52.102;8.084;2022-07-03T09:23:35;2.30;;;0.88;;
20531;SDS011;10424;52.102;8.084;2022-07-03T09:26:03;2.55;;;0.90;;
20531;SDS011;10424;52.102;8.084;2022-07-03T09:28:44;2.20;;;0.90;;
20531;SDS011;10424;52.102;8.084;2022-07-03T09:31:12;2.78;;;1.10;;
20531;SDS011;10424;52.102;8.084;2022-07-03T09:33:54;2.10;;;1.10;;
20531;SDS011;10424;52.102;8.084;2022-07-03T09:36:22;3.00;;;1.00;;
20531;SDS011;10424;52.102;8.084;2022-07-03T09:38:49;2.35;;;1.08;;
20531;SDS011;10424;52.102;8.084;2022-07-03T09:41:17;1.17;;;0.95;;
20531;SDS011;10424;52.102;8.084;2022-07-03T09:43:44;2.10;;;1.30;;
20531;SDS011;10424;52.102;8.084;2022-07-03T09:46:12;3.78;;;1.27;;
20531;SDS011;10424;52.102;8.084;2022-07-03T09:48:39;3.33;;;1.58;;
20531;SDS011;10424;52.102;8.084;2022-07-03T09:51:12;4.05;;;1.50;;
20531;SDS011;10424;52.102;8.084;2022-07-03T09:53:44;8.30;;;3.83;;
20531;SDS011;10424;52.102;8.084;2022-07-03T09:56:11;8.90;;;2.90;;
20531;SDS011;10424;52.102;8.084;2022-07-03T09:58:39;3.17;;;1.00;;
20531;SDS011;10424;52.102;8.084;2022-07-03T10:01:15;7.60;;;3.05;;
20531;SDS011;10424;52.102;8.084;2022-07-03T10:03:43;3.60;;;1.15;;
20531;SDS011;10424;52.102;8.084;2022-07-03T10:06:12;5.82;;;2.42;;
20531;SDS011;10424;52.102;8.084;2022-07-03T10:08:39;2.85;;;1.27;;
20531;SDS011;10424;52.102;8.084;2022-07-03T10:11:09;6.30;;;1.65;;
20531;SDS011;10424;52.102;8.084;2022-07-03T10:13:36;2.97;;;1.30;;
20531;SDS011;10424;52.102;8.084;2022-07-03T10:16:04;1.90;;;0.88;;
20531;SDS011;10424;52.102;8.084;2022-07-03T10:18:34;1.90;;;0.85;;
20531;SDS011;10424;52.102;8.084;2022-07-03T10:21:02;4.20;;;1.48;;
20531;SDS011;10424;52.102;8.084;2022-07-03T10:23:33;4.50;;;2.15;;
20531;SDS011;10424;52.102;8.084;2022-07-03T10:26:00;2.95;;;1.55;;
20531;SDS011;10424;52.102;8.084;2022-07-03T10:28:28;3.15;;;1.33;;
20531;SDS011;10424;52.102;8.084;2022-07-03T10:30:57;3.55;;;1.15;;
20531;SDS011;10424;52.102;8.084;2022-07-03T10:33:24;1.88;;;0.80;;
20531;SDS011;10424;52.102;8.084;2022-07-03T10:35:53;1.55;;;0.77;;
20531;SDS011;10424;52.102;8.084;2022-07-03T10:38:25;2.17;;;0.85;;
20531;SDS011;10424;52.102;8.084;2022-07-03T10:41:00;1.88;;;0.93;;
20531;SDS011;10424;52.102;8.084;2022-07-03T10:43:48;4.57;;;1.63;;
20531;SDS011;10424;52.102;8.084;2022-07-03T10:46:35;3.85;;;1.48;;
20531;SDS011;10424;52.102;8.084;2022-07-03T10:49:03;5.40;;;1.77;;
20531;SDS011;10424;52.102;8.084;2022-07-03T10:51:32;2.70;;;1.05;;
20531;SDS011;10424;52.102;8.084;2022-07-03T10:54:18;1.35;;;0.80;;
20531;SDS011;10424;52.102;8.084;2022-07-03T10:57:06;2.35;;;0.70;;
20531;SDS011;10424;52.102;8.084;2022-07-03T11:02:20;0.90;;;0.70;;
20531;SDS011;10424;52.102;8.084;2022-07-03T11:05:04;2.22;;;0.90;;
20531;SDS011;10424;52.102;8.084;2022-07-03T11:07:34;2.67;;;1.40;;
20531;SDS011;10424;52.102;8.084;2022-07-03T11:12:54;1.70;;;0.88;;
20531;SDS011;10424;52.102;8.084;2022-07-03T11:15:26;2.33;;;1.10;;
20531;SDS011;10424;52.102;8.084;2022-07-03T11:20:46;1.85;;;0.95;;
20531;SDS011;10424;52.102;8.084;2022-07-03T11:23:25;3.65;;;1.05;;
20531;SDS011;10424;52.102;8.084;2022-07-03T11:25:55;8.73;;;1.40;;
20531;SDS011;10424;52.102;8.084;2022-07-03T11:31:19;3.35;;;1.17;;
20531;SDS011;10424;52.102;8.084;2022-07-03T11:33:49;4.38;;;1.23;;
20531;SDS011;10424;52.102;8.084;2022-07-03T11:36:23;3.83;;;1.58;;
20531;SDS011;10424;52.102;8.084;2022-07-03T11:41:47;1.40;;;1.15;;
20531;SDS011;10424;52.102;8.084;2022-07-03T11:44:15;2.00;;;1.20;;
20531;SDS011;10424;52.102;8.084;2022-07-03T11:46:47;1.60;;;1.10;;
20531;SDS011;10424;52.102;8.084;2022-07-03T11:49:15;4.40;;;1.25;;
20531;SDS011;10424;52.102;8.084;2022-07-03T11:51:43;2.35;;;1.20;;
20531;SDS011;10424;52.102;8.084;2022-07-03T11:54:11;2.80;;;1.30;;
20531;SDS011;10424;52.102;8.084;2022-07-03T11:56:38;2.55;;;1.40;;
20531;SDS011;10424;52.102;8.084;2022-07-03T11:59:05;3.50;;;1.42;;
20531;SDS011;10424;52.102;8.084;2022-07-03T12:01:33;3.28;;;1.65;;
20531;SDS011;10424;52.102;8.084;2022-07-03T12:04:06;2.40;;;1.40;;
20531;SDS011;10424;52.102;8.084;2022-07-03T12:06:34;3.92;;;1.50;;
20531;SDS011;10424;52.102;8.084;2022-07-03T12:09:01;4.05;;;1.13;;
20531;SDS011;10424;52.102;8.084;2022-07-03T12:11:29;3.72;;;1.10;;
20531;SDS011;10424;52.102;8.084;2022-07-03T12:13:56;2.17;;;1.25;;
20531;SDS011;10424;52.102;8.084;2022-07-03T12:16:31;3.25;;;1.30;;
20531;SDS011;10424;52.102;8.084;2022-07-03T12:19:02;2.45;;;1.40;;
20531;SDS011;10424;52.102;8.084;2022-07-03T12:21:35;1.80;;;1.15;;
20531;SDS011;10424;52.102;8.084;2022-07-03T12:24:08;1.80;;;1.25;;
20531;SDS011;10424;52.102;8.084;2022-07-03T12:26:36;6.30;;;1.27;;
20531;SDS011;10424;52.102;8.084;2022-07-03T12:29:03;2.88;;;1.13;;
20531;SDS011;10424;52.102;8.084;2022-07-03T12:31:31;1.73;;;1.10;;
20531;SDS011;10424;52.102;8.084;2022-07-03T12:33:59;1.92;;;1.20;;
20531;SDS011;10424;52.102;8.084;2022-07-03T12:36:27;3.75;;;1.70;;
20531;SDS011;10424;52.102;8.084;2022-07-03T12:38:56;2.80;;;1.20;;
20531;SDS011;10424;52.102;8.084;2022-07-03T12:41:25;2.75;;;1.10;;
20531;SDS011;10424;52.102;8.084;2022-07-03T12:43:53;2.30;;;1.40;;
20531;SDS011;10424;52.102;8.084;2022-07-03T12:46:21;2.30;;;1.40;;
20531;SDS011;10424;52.102;8.084;2022-07-03T12:48:49;1.98;;;1.30;;
20531;SDS011;10424;52.102;8.084;2022-07-03T12:51:17;2.38;;;1.40;;
20531;SDS011;10424;52.102;8.084;2022-07-03T12:54:04;3.35;;;1.42;;
20531;SDS011;10424;52.102;8.084;2022-07-03T12:56:31;4.22;;;1.63;;
20531;SDS011;10424;52.102;8.084;2022-07-03T12:58:59;4.43;;;1.92;;
20531;SDS011;10424;52.102;8.084;2022-07-03T13:01:43;3.35;;;1.90;;
20531;SDS011;10424;52.102;8.084;2022-07-03T13:04:11;3.17;;;1.63;;
20531;SDS011;10424;52.102;8.084;2022-07-03T13:06:43;3.83;;;2.00;;
20531;SDS011;10424;52.102;8.084;2022-07-03T13:09:13;8.13;;;1.80;;
20531;SDS011;10424;52.102;8.084;2022-07-03T13:11:40;5.43;;;1.85;;
20531;SDS011;10424;52.102;8.084;2022-07-03T13:14:09;4.05;;;2.00;;
20531;SDS011;10424;52.102;8.084;2022-07-03T13:16:43;3.15;;;1.80;;
20531;SDS011;10424;52.102;8.084;2022-07-03T13:19:12;5.55;;;2.10;;
20531;SDS011;10424;52.102;8.084;2022-07-03T13:21:39;4.55;;;1.88;;
20531;SDS011;10424;52.102;8.084;2022-07-03T13:24:08;5.93;;;1.90;;
20531;SDS011;10424;52.102;8.084;2022-07-03T13:26:37;6.00;;;2.13;;
20531;SDS011;10424;52.102;8.084;2022-07-03T13:29:05;3.33;;;1.55;;
20531;SDS011;10424;52.102;8.084;2022-07-03T13:31:32;3.67;;;1.55;;
20531;SDS011;10424;52.102;8.084;2022-07-03T13:33:59;2.88;;;1.50;;
20531;SDS011;10424;52.102;8.084;2022-07-03T13:36:27;4.28;;;1.85;;
20531;SDS011;10424;52.102;8.084;2022-07-03T13:38:54;2.78;;;1.50;;
20531;SDS011;10424;52.102;8.084;2022-07-03T13:41:22;4.70;;;1.70;;
20531;SDS011;10424;52.102;8.084;2022-07-03T13:43:51;3.55;;;1.70;;
20531;SDS011;10424;52.102;8.084;2022-07-03T13:46:19;4.35;;;1.60;;
20531;SDS011;10424;52.102;8.084;2022-07-03T13:48:48;4.60;;;1.52;;
20531;SDS011;10424;52.102;8.084;2022-07-03T13:51:16;2.78;;;1.67;;
20531;SDS011;10424;52.102;8.084;2022-07-03T13:53:43;2.88;;;1.27;;
20531;SDS011;10424;52.102;8.084;2022-07-03T13:56:11;2.55;;;1.48;;
20531;SDS011;10424;52.102;8.084;2022-07-03T13:58:38;2.13;;;1.30;;
20531;SDS011;10424;52.102;8.084;2022-07-03T14:01:07;3.55;;;1.48;;
20531;SDS011;10424;52.102;8.084;2022-07-03T14:03:34;2.85;;;1.40;;
20531;SDS011;10424;52.102;8.084;2022-07-03T14:06:02;4.35;;;1.90;;
20531;SDS011;10424;52.102;8.084;2022-07-03T14:08:29;2.78;;;1.60;;
20531;SDS011;10424;52.102;8.084;2022-07-03T14:10:56;2.25;;;1.60;;
20531;SDS011;10424;52.102;8.084;2022-07-03T14:13:24;3.28;;;1.67;;
20531;SDS011;10424;52.102;8.084;2022-07-03T14:15:51;2.28;;;1.50;;
20531;SDS011;10424;52.102;8.084;2022-07-03T14:18:20;2.42;;;1.38;;
20531;SDS011;10424;52.102;8.084;2022-07-03T14:20:47;3.15;;;1.63;;
20531;SDS011;10424;52.102;8.084;2022-07-03T14:23:14;4.00;;;1.70;;
20531;SDS011;10424;52.102;8.084;2022-07-03T14:25:42;4.15;;;1.27;;
20531;SDS011;10424;52.102;8.084;2022-07-03T14:28:09;3.30;;;1.25;;
20531;SDS011;10424;52.102;8.084;2022-07-03T14:30:54;2.72;;;1.27;;
20531;SDS011;10424;52.102;8.084;2022-07-03T14:33:40;6.30;;;2.30;;
20531;SDS011;10424;52.102;8.084;2022-07-03T14:36:07;4.72;;;1.20;;
20531;SDS011;10424;52.102;8.084;2022-07-03T14:38:35;3.33;;;1.30;;
20531;SDS011;10424;52.102;8.084;2022-07-03T14:41:02;2.60;;;1.25;;
20531;SDS011;10424;52.102;8.084;2022-07-03T14:43:29;3.45;;;1.40;;
20531;SDS011;10424;52.102;8.084;2022-07-03T14:45:56;3.45;;;1.35;;
20531;SDS011;10424;52.102;8.084;2022-07-03T14:48:24;3.78;;;1.40;;
20531;SDS011;10424;52.102;8.084;2022-07-03T14:50:53;2.92;;;1.10;;
20531;SDS011;10424;52.102;8.084;2022-07-03T14:53:20;2.08;;;1.02;;
20531;SDS011;10424;52.102;8.084;2022-07-03T14:55:48;3.60;;;1.20;;
20531;SDS011;10424;52.102;8.084;2022-07-03T14:58:18;2.60;;;1.23;;
20531;SDS011;10424;52.102;8.084;2022-07-03T15:00:48;3.67;;;1.10;;
20531;SDS011;10424;52.102;8.084;2022-07-03T15:03:17;2.45;;;1.10;;
20531;SDS011;10424;52.102;8.084;2022-07-03T15:05:45;3.90;;;1.15;;
20531;SDS011;10424;52.102;8.084;2022-07-03T15:11:15;2.13;;;1.20;;
20531;SDS011;10424;52.102;8.084;2022-07-03T15:14:01;2.25;;;1.05;;
20531;SDS011;10424;52.102;8.084;2022-07-03T15:16:31;2.17;;;1.15;;
20531;SDS011;10424;52.102;8.084;2022-07-03T15:19:00;2.65;;;1.10;;